SWR2 LSGG-LFLL
Flight info
| Callsign | SWR2 |
|---|---|
| Flight time | 0h 17m |
| Altitude | 11000 |
| Route | DEPUL DCT AMVAR |
| Aircraft | B77W/H-SDE1E2E3FGHIJ2J3J4J5M1RWXY/LB1D1 |
Departure
| Time | 2026-05-04 04:26 |
|---|---|
| Airport | Geneva International Airport (LSGG) |
Arrival
| Time | 2026-05-04 04:43 |
|---|---|
| Airport | Lyon Saint-Exupéry Airport (LFLL) |
| Time | Latitude | Longitude | Altitude | Speed | Heading |
|---|---|---|---|---|---|
| 2026-05-04 04:10 | 46.23434 | 6.10966 | 1409 ft | 0 kts | 135° |
| 2026-05-04 04:19 | 46.23435 | 6.10964 | 1410 ft | 2 kts | 136° |
| 2026-05-04 04:19 | 46.23448 | 6.10949 | 1411 ft | 4 kts | 212° |
| 2026-05-04 04:20 | 46.23456 | 6.10974 | 1410 ft | 4 kts | 252° |
| 2026-05-04 04:20 | 46.23466 | 6.11007 | 1410 ft | 2 kts | 226° |
| 2026-05-04 04:20 | 46.23471 | 6.11013 | 1409 ft | 0 kts | 225° |
| 2026-05-04 04:23 | 46.23469 | 6.11010 | 1408 ft | 5 kts | 225° |
| 2026-05-04 04:23 | 46.23449 | 6.10818 | 1402 ft | 35 kts | 269° |
| 2026-05-04 04:23 | 46.23274 | 6.10461 | 1417 ft | 57 kts | 225° |
| 2026-05-04 04:24 | 46.22978 | 6.10007 | 1421 ft | 61 kts | 226° |
| 2026-05-04 04:24 | 46.22704 | 6.09610 | 1431 ft | 50 kts | 224° |
| 2026-05-04 04:24 | 46.22578 | 6.09426 | 1428 ft | 21 kts | 232° |
| 2026-05-04 04:24 | 46.22556 | 6.09228 | 1428 ft | 21 kts | 285° |
| 2026-05-04 04:25 | 46.22619 | 6.09178 | 1430 ft | 7 kts | 30° |
| 2026-05-04 04:25 | 46.22683 | 6.09252 | 1431 ft | 14 kts | 44° |
| 2026-05-04 04:25 | 46.22701 | 6.09279 | 1430 ft | 23 kts | 45° |
| 2026-05-04 04:25 | 46.23053 | 6.09792 | 1422 ft | 119 kts | 45° |
| 2026-05-04 04:26 | 46.23834 | 6.10917 | 1429 ft | 191 kts | 46° |
| 2026-05-04 04:26 | 46.24710 | 6.12285 | 2290 ft | 188 kts | 47° |
| 2026-05-04 04:26 | 46.25681 | 6.13752 | 2867 ft | 216 kts | 45° |
| 2026-05-04 04:26 | 46.26791 | 6.15348 | 3432 ft | 239 kts | 45° |
| 2026-05-04 04:27 | 46.28021 | 6.17122 | 4011 ft | 255 kts | 45° |
| 2026-05-04 04:27 | 46.29288 | 6.18965 | 4843 ft | 262 kts | 46° |
| 2026-05-04 04:27 | 46.30668 | 6.20706 | 5581 ft | 268 kts | 30° |
| 2026-05-04 04:27 | 46.34744 | 6.19896 | 7247 ft | 283 kts | 316° |
| 2026-05-04 04:28 | 46.34696 | 6.11254 | 10253 ft | 270 kts | 214° |
| 2026-05-04 04:28 | 46.32971 | 6.09930 | 10556 ft | 292 kts | 202° |
| 2026-05-04 04:28 | 46.31003 | 6.08749 | 10869 ft | 319 kts | 201° |
| 2026-05-04 04:28 | 46.28859 | 6.07492 | 11191 ft | 345 kts | 201° |
| 2026-05-04 04:29 | 46.21344 | 6.03004 | 11901 ft | 358 kts | 202° |
| 2026-05-04 04:29 | 46.15733 | 5.98655 | 11981 ft | 371 kts | 225° |
| 2026-05-04 04:29 | 46.09894 | 5.86514 | 11999 ft | 376 kts | 233° |
| 2026-05-04 04:29 | 46.03943 | 5.74072 | 11970 ft | 375 kts | 233° |
| 2026-05-04 04:30 | 45.98055 | 5.61869 | 11969 ft | 367 kts | 233° |
| 2026-05-04 04:30 | 45.93926 | 5.54747 | 11977 ft | 363 kts | 210° |
| 2026-05-04 04:30 | 45.84036 | 5.55515 | 12052 ft | 382 kts | 155° |
| 2026-05-04 04:30 | 45.74804 | 5.62699 | 11965 ft | 371 kts | 155° |
| 2026-05-04 04:31 | 45.68291 | 5.67603 | 11973 ft | 372 kts | 155° |
| 2026-05-04 04:31 | 45.59100 | 5.74453 | 11959 ft | 373 kts | 155° |
| 2026-05-04 04:31 | 45.49910 | 5.81275 | 11968 ft | 372 kts | 155° |
| 2026-05-04 04:31 | 45.40631 | 5.87708 | 11947 ft | 366 kts | 171° |
| 2026-05-04 04:32 | 45.31968 | 5.81610 | 11961 ft | 377 kts | 237° |
| 2026-05-04 04:32 | 45.30601 | 5.73846 | 12019 ft | 377 kts | 258° |
| 2026-05-04 04:32 | 45.30211 | 5.70204 | 11656 ft | 365 kts | 257° |
| 2026-05-04 04:32 | 45.29821 | 5.66785 | 11070 ft | 338 kts | 256° |
| 2026-05-04 04:33 | 45.29447 | 5.63653 | 10895 ft | 304 kts | 255° |
| 2026-05-04 04:33 | 45.29102 | 5.60826 | 10720 ft | 278 kts | 255° |
| 2026-05-04 04:33 | 45.28778 | 5.58213 | 10657 ft | 262 kts | 255° |
| 2026-05-04 04:33 | 45.28549 | 5.55649 | 10534 ft | 269 kts | 267° |
| 2026-05-04 04:34 | 45.29101 | 5.53039 | 10431 ft | 287 kts | 294° |
| 2026-05-04 04:34 | 45.30261 | 5.50717 | 10131 ft | 289 kts | 302° |
| 2026-05-04 04:34 | 45.31524 | 5.48504 | 9426 ft | 290 kts | 304° |
| 2026-05-04 04:34 | 45.32808 | 5.46319 | 8782 ft | 289 kts | 305° |
| 2026-05-04 04:35 | 45.34081 | 5.44156 | 8345 ft | 278 kts | 304° |
| 2026-05-04 04:35 | 45.35283 | 5.42109 | 8132 ft | 259 kts | 304° |
| 2026-05-04 04:35 | 45.36035 | 5.40823 | 7915 ft | 252 kts | 304° |
| 2026-05-04 04:35 | 45.37130 | 5.38933 | 7586 ft | 243 kts | 303° |
| 2026-05-04 04:36 | 45.38198 | 5.37079 | 7063 ft | 244 kts | 303° |
| 2026-05-04 04:36 | 45.39297 | 5.35155 | 6122 ft | 260 kts | 304° |
| 2026-05-04 04:36 | 45.40476 | 5.33085 | 5013 ft | 278 kts | 305° |
| 2026-05-04 04:36 | 45.41722 | 5.30905 | 3906 ft | 287 kts | 306° |
| 2026-05-04 04:37 | 45.45421 | 5.24798 | 3090 ft | 245 kts | 310° |
| 2026-05-04 04:37 | 45.46610 | 5.23070 | 3738 ft | 243 kts | 307° |
| 2026-05-04 04:38 | 45.47715 | 5.21230 | 4252 ft | 250 kts | 303° |
| 2026-05-04 04:38 | 45.48759 | 5.19282 | 4939 ft | 244 kts | 300° |
| 2026-05-04 04:38 | 45.49755 | 5.17303 | 5046 ft | 250 kts | 299° |
| 2026-05-04 04:38 | 45.50777 | 5.15300 | 4742 ft | 249 kts | 301° |
| 2026-05-04 04:39 | 45.51827 | 5.13349 | 4170 ft | 246 kts | 302° |
| 2026-05-04 04:39 | 45.52933 | 5.11585 | 3740 ft | 235 kts | 320° |
| 2026-05-04 04:39 | 45.54430 | 5.10946 | 3432 ft | 218 kts | 354° |
| 2026-05-04 04:39 | 45.55875 | 5.10861 | 3323 ft | 208 kts | 353° |
| 2026-05-04 04:40 | 45.57329 | 5.10698 | 3321 ft | 210 kts | 352° |
| 2026-05-04 04:40 | 45.58779 | 5.10522 | 3240 ft | 210 kts | 353° |
| 2026-05-04 04:40 | 45.60212 | 5.10347 | 2946 ft | 207 kts | 352° |
| 2026-05-04 04:40 | 45.61620 | 5.10180 | 2670 ft | 200 kts | 352° |
| 2026-05-04 04:41 | 45.63020 | 5.10004 | 2405 ft | 202 kts | 353° |
| 2026-05-04 04:41 | 45.64404 | 5.09839 | 2140 ft | 198 kts | 353° |
| 2026-05-04 04:41 | 45.65747 | 5.09678 | 1840 ft | 190 kts | 354° |
| 2026-05-04 04:41 | 45.67055 | 5.09507 | 1531 ft | 186 kts | 353° |
| 2026-05-04 04:42 | 45.68301 | 5.09335 | 1302 ft | 175 kts | 356° |
| 2026-05-04 04:42 | 45.69476 | 5.09219 | 1148 ft | 165 kts | 355° |
| 2026-05-04 04:42 | 45.70603 | 5.09070 | 924 ft | 160 kts | 357° |
| 2026-05-04 04:42 | 45.71649 | 5.08957 | 825 ft | 141 kts | 357° |
| 2026-05-04 04:43 | 45.72453 | 5.08856 | 804 ft | 84 kts | 356° |
| 2026-05-04 04:43 | 45.72883 | 5.08790 | 800 ft | 38 kts | 332° |
| 2026-05-04 04:43 | 45.72919 | 5.08400 | 799 ft | 49 kts | 237° |
| 2026-05-04 04:43 | 45.72682 | 5.08368 | 803 ft | 33 kts | 174° |
| 2026-05-04 04:44 | 45.72461 | 5.08393 | 806 ft | 30 kts | 175° |
| 2026-05-04 04:44 | 45.72260 | 5.08368 | 809 ft | 30 kts | 206° |
| 2026-05-04 04:44 | 45.72066 | 5.08260 | 812 ft | 30 kts | 213° |
| 2026-05-04 04:44 | 45.71976 | 5.08055 | 810 ft | 7 kts | 242° |
| 2026-05-04 04:45 | 45.71975 | 5.08053 | 810 ft | 0 kts | 242° |